メインページ
METAR-TAF:

METAR-TAF

空港 :

バスラ国際空港

バスラ, イラク

緯度: 30-32-56N, 経度: 47-39-45E, 海抜: 1m

現時点の気象観測

当レポートは47分前の05:00(UTC)に作成
無風
気温 16°C
湿度 59%
気圧 1016 hPa
視程10km以上
1,500メートル以下は雲なし、積乱雲なし

METAR: ORMM 210500Z 00000KT CAVOK 16/08 Q1016 NOSIG

時間: 08:47 (05:47 UTC)

予報

当レポートは1時間47分前の04:00(UTC)に作成
予報は21日の 06時(UTC)から 22日の 06時(UTC)まで有効
変向風 3kt
視程10km以上
1,500メートル以下は雲なし、積乱雲なし
21日の 07時(UTC)から 21日の 09時(UTC)まで徐々に
北西の風 10kt
高度4000ftの雲はほとんどない
高度10000ftの雲は散在している

TAF: ORMM 210400Z 2106/2206 VRB03KT CAVOK BECMG 2107/2109 32010KT FEW040 SCT100

4,000以上の空港の気象観測と天気予報(METAR報とTAF報)

利用可能な観測所は地図上に黄色い丸と赤い丸で示す。

丸の上にカーソルを重ねると観測所名を参照できる。

次にクリックすると気象観測と天気予報を参照できる。

マップの切り替え:黒色「×」印の緑ボタンをクリックして拡大、「-」印の緑ボタンをクリックして縮小、緑色の三角印をクリックして隣りの地図に切り替え


METAR-TAF: